sensor_id;sensor_type;location;lat;lon;timestamp;P1;durP1;ratioP1;P2;durP2;ratioP2
15449;SDS011;7826;49.784;9.934;2023-03-19T00:00:14;4.73;;;3.10;;
15449;SDS011;7826;49.784;9.934;2023-03-19T00:02:42;4.03;;;3.27;;
15449;SDS011;7826;49.784;9.934;2023-03-19T00:05:14;5.00;;;3.23;;
15449;SDS011;7826;49.784;9.934;2023-03-19T00:07:40;4.13;;;3.13;;
15449;SDS011;7826;49.784;9.934;2023-03-19T00:10:06;4.70;;;3.13;;
15449;SDS011;7826;49.784;9.934;2023-03-19T00:12:33;4.77;;;3.07;;
15449;SDS011;7826;49.784;9.934;2023-03-19T00:14:59;6.90;;;3.27;;
15449;SDS011;7826;49.784;9.934;2023-03-19T00:17:25;4.27;;;3.03;;
15449;SDS011;7826;49.784;9.934;2023-03-19T00:19:52;4.47;;;3.07;;
15449;SDS011;7826;49.784;9.934;2023-03-19T00:22:18;4.23;;;2.93;;
15449;SDS011;7826;49.784;9.934;2023-03-19T00:24:44;6.00;;;2.70;;
15449;SDS011;7826;49.784;9.934;2023-03-19T00:27:11;4.77;;;2.90;;
15449;SDS011;7826;49.784;9.934;2023-03-19T00:29:37;3.43;;;3.03;;
15449;SDS011;7826;49.784;9.934;2023-03-19T00:32:03;5.27;;;3.50;;
15449;SDS011;7826;49.784;9.934;2023-03-19T00:34:30;6.73;;;3.40;;
15449;SDS011;7826;49.784;9.934;2023-03-19T00:36:56;5.00;;;3.00;;
15449;SDS011;7826;49.784;9.934;2023-03-19T00:39:22;3.77;;;3.00;;
15449;SDS011;7826;49.784;9.934;2023-03-19T00:41:49;4.03;;;2.87;;
15449;SDS011;7826;49.784;9.934;2023-03-19T00:44:18;3.50;;;2.60;;
15449;SDS011;7826;49.784;9.934;2023-03-19T00:46:44;3.00;;;2.67;;
15449;SDS011;7826;49.784;9.934;2023-03-19T00:49:11;6.13;;;2.93;;
15449;SDS011;7826;49.784;9.934;2023-03-19T00:51:38;3.60;;;2.77;;
15449;SDS011;7826;49.784;9.934;2023-03-19T00:54:09;6.83;;;3.10;;
15449;SDS011;7826;49.784;9.934;2023-03-19T00:56:36;3.67;;;2.80;;
15449;SDS011;7826;49.784;9.934;2023-03-19T00:59:03;3.57;;;2.70;;
15449;SDS011;7826;49.784;9.934;2023-03-19T01:01:30;5.20;;;2.57;;
15449;SDS011;7826;49.784;9.934;2023-03-19T01:03:56;5.10;;;2.87;;
15449;SDS011;7826;49.784;9.934;2023-03-19T01:06:23;3.27;;;2.47;;
15449;SDS011;7826;49.784;9.934;2023-03-19T01:08:49;2.27;;;2.00;;
15449;SDS011;7826;49.784;9.934;2023-03-19T01:11:16;3.50;;;2.77;;
15449;SDS011;7826;49.784;9.934;2023-03-19T01:13:43;4.10;;;3.57;;
15449;SDS011;7826;49.784;9.934;2023-03-19T01:16:09;6.53;;;3.47;;
15449;SDS011;7826;49.784;9.934;2023-03-19T01:18:36;7.03;;;3.13;;
15449;SDS011;7826;49.784;9.934;2023-03-19T01:21:03;7.37;;;3.47;;
15449;SDS011;7826;49.784;9.934;2023-03-19T01:23:29;8.17;;;4.30;;
15449;SDS011;7826;49.784;9.934;2023-03-19T01:25:56;6.27;;;4.30;;
15449;SDS011;7826;49.784;9.934;2023-03-19T01:28:22;4.90;;;3.50;;
15449;SDS011;7826;49.784;9.934;2023-03-19T01:30:49;5.30;;;3.70;;
15449;SDS011;7826;49.784;9.934;2023-03-19T01:33:15;7.40;;;4.00;;
15449;SDS011;7826;49.784;9.934;2023-03-19T01:35:44;6.00;;;3.83;;
15449;SDS011;7826;49.784;9.934;2023-03-19T01:38:12;5.17;;;4.23;;
15449;SDS011;7826;49.784;9.934;2023-03-19T01:40:42;5.63;;;3.77;;
15449;SDS011;7826;49.784;9.934;2023-03-19T01:43:19;5.10;;;3.53;;
15449;SDS011;7826;49.784;9.934;2023-03-19T01:45:51;5.20;;;3.40;;
15449;SDS011;7826;49.784;9.934;2023-03-19T01:48:43;5.77;;;4.00;;
15449;SDS011;7826;49.784;9.934;2023-03-19T01:51:14;5.90;;;3.70;;
15449;SDS011;7826;49.784;9.934;2023-03-19T01:53:43;5.97;;;3.70;;
15449;SDS011;7826;49.784;9.934;2023-03-19T01:56:15;6.20;;;3.57;;
15449;SDS011;7826;49.784;9.934;2023-03-19T01:58:45;5.70;;;3.87;;
15449;SDS011;7826;49.784;9.934;2023-03-19T02:01:15;4.83;;;3.83;;
15449;SDS011;7826;49.784;9.934;2023-03-19T02:03:42;6.37;;;3.67;;
15449;SDS011;7826;49.784;9.934;2023-03-19T02:06:09;6.67;;;4.60;;
15449;SDS011;7826;49.784;9.934;2023-03-19T02:08:38;5.57;;;4.27;;
15449;SDS011;7826;49.784;9.934;2023-03-19T02:11:06;8.33;;;4.90;;
15449;SDS011;7826;49.784;9.934;2023-03-19T02:13:34;5.33;;;4.00;;
15449;SDS011;7826;49.784;9.934;2023-03-19T02:16:01;7.70;;;4.33;;
15449;SDS011;7826;49.784;9.934;2023-03-19T02:18:28;5.27;;;4.43;;
15449;SDS011;7826;49.784;9.934;2023-03-19T02:26:17;5.93;;;4.43;;
15449;SDS011;7826;49.784;9.934;2023-03-19T02:28:45;6.70;;;4.37;;
15449;SDS011;7826;49.784;9.934;2023-03-19T02:31:14;11.03;;;5.00;;
15449;SDS011;7826;49.784;9.934;2023-03-19T02:33:41;6.50;;;4.50;;
15449;SDS011;7826;49.784;9.934;2023-03-19T02:36:12;5.23;;;3.80;;
15449;SDS011;7826;49.784;9.934;2023-03-19T02:38:42;3.73;;;3.30;;
15449;SDS011;7826;49.784;9.934;2023-03-19T02:41:11;5.40;;;3.57;;
15449;SDS011;7826;49.784;9.934;2023-03-19T02:43:39;5.33;;;3.17;;
15449;SDS011;7826;49.784;9.934;2023-03-19T02:46:08;6.00;;;3.23;;
15449;SDS011;7826;49.784;9.934;2023-03-19T02:48:37;5.50;;;3.30;;
15449;SDS011;7826;49.784;9.934;2023-03-19T02:51:04;3.77;;;2.90;;
15449;SDS011;7826;49.784;9.934;2023-03-19T02:53:31;3.70;;;3.10;;
15449;SDS011;7826;49.784;9.934;2023-03-19T02:55:59;3.57;;;2.80;;
15449;SDS011;7826;49.784;9.934;2023-03-19T02:58:26;4.47;;;2.53;;
15449;SDS011;7826;49.784;9.934;2023-03-19T03:00:52;2.90;;;2.63;;
15449;SDS011;7826;49.784;9.934;2023-03-19T03:03:18;2.70;;;2.43;;
15449;SDS011;7826;49.784;9.934;2023-03-19T03:05:45;2.90;;;2.57;;
15449;SDS011;7826;49.784;9.934;2023-03-19T03:08:11;8.53;;;3.27;;
15449;SDS011;7826;49.784;9.934;2023-03-19T03:10:37;4.80;;;3.37;;
15449;SDS011;7826;49.784;9.934;2023-03-19T03:13:03;4.37;;;3.43;;
15449;SDS011;7826;49.784;9.934;2023-03-19T03:15:30;3.20;;;2.90;;
15449;SDS011;7826;49.784;9.934;2023-03-19T03:17:57;4.10;;;3.10;;
15449;SDS011;7826;49.784;9.934;2023-03-19T03:20:23;4.80;;;3.50;;
15449;SDS011;7826;49.784;9.934;2023-03-19T03:22:49;4.03;;;2.77;;
15449;SDS011;7826;49.784;9.934;2023-03-19T03:25:16;5.77;;;2.97;;
15449;SDS011;7826;49.784;9.934;2023-03-19T03:27:42;4.23;;;3.77;;
15449;SDS011;7826;49.784;9.934;2023-03-19T03:30:09;3.33;;;3.03;;
15449;SDS011;7826;49.784;9.934;2023-03-19T03:32:45;3.53;;;3.20;;
15449;SDS011;7826;49.784;9.934;2023-03-19T03:35:11;6.23;;;3.57;;
15449;SDS011;7826;49.784;9.934;2023-03-19T03:37:38;5.90;;;3.80;;
15449;SDS011;7826;49.784;9.934;2023-03-19T03:40:04;4.27;;;3.87;;
15449;SDS011;7826;49.784;9.934;2023-03-19T03:42:33;4.60;;;3.70;;
15449;SDS011;7826;49.784;9.934;2023-03-19T03:45:01;5.30;;;3.97;;
15449;SDS011;7826;49.784;9.934;2023-03-19T03:47:28;7.33;;;4.00;;
15449;SDS011;7826;49.784;9.934;2023-03-19T03:49:54;3.73;;;3.43;;
15449;SDS011;7826;49.784;9.934;2023-03-19T03:52:20;6.50;;;4.10;;
15449;SDS011;7826;49.784;9.934;2023-03-19T03:54:47;5.80;;;4.30;;
15449;SDS011;7826;49.784;9.934;2023-03-19T03:57:13;6.67;;;4.47;;
15449;SDS011;7826;49.784;9.934;2023-03-19T03:59:40;6.97;;;4.00;;
15449;SDS011;7826;49.784;9.934;2023-03-19T04:02:07;8.03;;;4.10;;
15449;SDS011;7826;49.784;9.934;2023-03-19T04:04:33;6.20;;;4.30;;
15449;SDS011;7826;49.784;9.934;2023-03-19T04:07:00;4.70;;;3.90;;
15449;SDS011;7826;49.784;9.934;2023-03-19T04:09:26;5.77;;;4.10;;
15449;SDS011;7826;49.784;9.934;2023-03-19T04:11:52;7.27;;;4.70;;
15449;SDS011;7826;49.784;9.934;2023-03-19T04:14:19;6.17;;;4.83;;
15449;SDS011;7826;49.784;9.934;2023-03-19T04:16:45;6.20;;;4.27;;
15449;SDS011;7826;49.784;9.934;2023-03-19T04:19:11;10.20;;;4.73;;
15449;SDS011;7826;49.784;9.934;2023-03-19T04:21:37;5.70;;;4.43;;
15449;SDS011;7826;49.784;9.934;2023-03-19T04:24:04;5.83;;;4.30;;
15449;SDS011;7826;49.784;9.934;2023-03-19T04:26:30;7.97;;;4.40;;
15449;SDS011;7826;49.784;9.934;2023-03-19T04:28:57;7.80;;;4.17;;
15449;SDS011;7826;49.784;9.934;2023-03-19T04:31:23;4.30;;;3.70;;
15449;SDS011;7826;49.784;9.934;2023-03-19T04:33:50;6.30;;;4.23;;
15449;SDS011;7826;49.784;9.934;2023-03-19T04:36:16;5.57;;;4.20;;
15449;SDS011;7826;49.784;9.934;2023-03-19T04:38:42;6.13;;;4.20;;
15449;SDS011;7826;49.784;9.934;2023-03-19T04:41:09;6.40;;;4.30;;
15449;SDS011;7826;49.784;9.934;2023-03-19T04:43:35;7.47;;;4.00;;
15449;SDS011;7826;49.784;9.934;2023-03-19T04:46:01;5.67;;;3.93;;
15449;SDS011;7826;49.784;9.934;2023-03-19T04:48:27;3.50;;;3.00;;
15449;SDS011;7826;49.784;9.934;2023-03-19T04:50:54;4.97;;;3.53;;
15449;SDS011;7826;49.784;9.934;2023-03-19T04:53:21;4.50;;;3.60;;
15449;SDS011;7826;49.784;9.934;2023-03-19T04:55:49;3.70;;;3.33;;
15449;SDS011;7826;49.784;9.934;2023-03-19T04:58:16;7.20;;;4.07;;
15449;SDS011;7826;49.784;9.934;2023-03-19T05:00:42;4.50;;;3.23;;
15449;SDS011;7826;49.784;9.934;2023-03-19T05:03:11;4.80;;;3.83;;
15449;SDS011;7826;49.784;9.934;2023-03-19T05:05:41;6.57;;;3.73;;
15449;SDS011;7826;49.784;9.934;2023-03-19T05:08:08;6.50;;;3.80;;
15449;SDS011;7826;49.784;9.934;2023-03-19T05:10:34;4.83;;;4.13;;
15449;SDS011;7826;49.784;9.934;2023-03-19T05:13:01;5.30;;;3.83;;
15449;SDS011;7826;49.784;9.934;2023-03-19T05:15:28;7.50;;;4.13;;
15449;SDS011;7826;49.784;9.934;2023-03-19T05:17:54;7.13;;;4.30;;
15449;SDS011;7826;49.784;9.934;2023-03-19T05:20:20;5.23;;;4.00;;
15449;SDS011;7826;49.784;9.934;2023-03-19T05:22:48;4.93;;;4.00;;
15449;SDS011;7826;49.784;9.934;2023-03-19T05:25:14;4.87;;;3.83;;
15449;SDS011;7826;49.784;9.934;2023-03-19T05:27:41;5.13;;;4.20;;
15449;SDS011;7826;49.784;9.934;2023-03-19T05:30:07;5.60;;;4.40;;
15449;SDS011;7826;49.784;9.934;2023-03-19T05:32:34;7.93;;;4.37;;
15449;SDS011;7826;49.784;9.934;2023-03-19T05:35:00;4.90;;;4.40;;
15449;SDS011;7826;49.784;9.934;2023-03-19T05:37:26;5.73;;;4.30;;
15449;SDS011;7826;49.784;9.934;2023-03-19T05:39:52;6.13;;;4.80;;
15449;SDS011;7826;49.784;9.934;2023-03-19T05:42:18;6.43;;;4.50;;
15449;SDS011;7826;49.784;9.934;2023-03-19T05:44:45;5.07;;;4.23;;
15449;SDS011;7826;49.784;9.934;2023-03-19T05:47:11;6.20;;;4.03;;
15449;SDS011;7826;49.784;9.934;2023-03-19T05:49:37;4.43;;;4.00;;
15449;SDS011;7826;49.784;9.934;2023-03-19T05:52:03;5.37;;;4.30;;
15449;SDS011;7826;49.784;9.934;2023-03-19T05:54:30;4.47;;;3.70;;
15449;SDS011;7826;49.784;9.934;2023-03-19T05:56:56;4.57;;;3.57;;
15449;SDS011;7826;49.784;9.934;2023-03-19T05:59:22;7.67;;;3.00;;
15449;SDS011;7826;49.784;9.934;2023-03-19T06:01:48;6.33;;;3.70;;
15449;SDS011;7826;49.784;9.934;2023-03-19T06:04:15;4.00;;;3.20;;
15449;SDS011;7826;49.784;9.934;2023-03-19T06:06:41;5.20;;;2.73;;
15449;SDS011;7826;49.784;9.934;2023-03-19T06:09:07;5.63;;;3.07;;
15449;SDS011;7826;49.784;9.934;2023-03-19T06:11:33;2.90;;;2.67;;
15449;SDS011;7826;49.784;9.934;2023-03-19T06:13:59;4.67;;;3.17;;
15449;SDS011;7826;49.784;9.934;2023-03-19T06:16:26;4.67;;;3.20;;
15449;SDS011;7826;49.784;9.934;2023-03-19T06:18:52;3.10;;;2.80;;
15449;SDS011;7826;49.784;9.934;2023-03-19T06:21:18;3.17;;;2.70;;
15449;SDS011;7826;49.784;9.934;2023-03-19T06:23:45;4.67;;;2.90;;
15449;SDS011;7826;49.784;9.934;2023-03-19T06:26:11;3.63;;;2.93;;
15449;SDS011;7826;49.784;9.934;2023-03-19T06:28:37;3.60;;;3.00;;
15449;SDS011;7826;49.784;9.934;2023-03-19T06:31:04;3.27;;;2.73;;
15449;SDS011;7826;49.784;9.934;2023-03-19T06:33:30;5.93;;;2.73;;
15449;SDS011;7826;49.784;9.934;2023-03-19T06:35:58;4.63;;;3.07;;
15449;SDS011;7826;49.784;9.934;2023-03-19T06:38:24;3.73;;;2.80;;
15449;SDS011;7826;49.784;9.934;2023-03-19T06:40:51;4.87;;;2.83;;
15449;SDS011;7826;49.784;9.934;2023-03-19T06:43:17;3.50;;;3.00;;
15449;SDS011;7826;49.784;9.934;2023-03-19T06:45:43;3.10;;;2.80;;
15449;SDS011;7826;49.784;9.934;2023-03-19T06:48:10;3.90;;;2.43;;
15449;SDS011;7826;49.784;9.934;2023-03-19T06:50:36;5.13;;;3.17;;
15449;SDS011;7826;49.784;9.934;2023-03-19T06:53:03;3.37;;;2.90;;
15449;SDS011;7826;49.784;9.934;2023-03-19T06:55:29;12.10;;;3.30;;
15449;SDS011;7826;49.784;9.934;2023-03-19T06:57:55;8.53;;;3.23;;
15449;SDS011;7826;49.784;9.934;2023-03-19T07:00:22;3.77;;;3.00;;
15449;SDS011;7826;49.784;9.934;2023-03-19T07:02:49;2.57;;;2.33;;
15449;SDS011;7826;49.784;9.934;2023-03-19T07:05:15;4.13;;;2.93;;
15449;SDS011;7826;49.784;9.934;2023-03-19T07:07:41;2.70;;;2.50;;
15449;SDS011;7826;49.784;9.934;2023-03-19T07:10:07;2.73;;;2.53;;
15449;SDS011;7826;49.784;9.934;2023-03-19T07:12:34;4.30;;;3.30;;
15449;SDS011;7826;49.784;9.934;2023-03-19T07:15:01;5.10;;;2.93;;
15449;SDS011;7826;49.784;9.934;2023-03-19T07:17:29;5.97;;;2.97;;
15449;SDS011;7826;49.784;9.934;2023-03-19T07:19:55;2.87;;;2.63;;
15449;SDS011;7826;49.784;9.934;2023-03-19T07:22:22;5.60;;;2.83;;
15449;SDS011;7826;49.784;9.934;2023-03-19T07:24:48;3.53;;;2.93;;
15449;SDS011;7826;49.784;9.934;2023-03-19T07:27:14;3.63;;;2.87;;
15449;SDS011;7826;49.784;9.934;2023-03-19T07:29:41;2.40;;;2.20;;
15449;SDS011;7826;49.784;9.934;2023-03-19T07:32:08;2.90;;;2.57;;
15449;SDS011;7826;49.784;9.934;2023-03-19T07:34:35;8.23;;;3.27;;
15449;SDS011;7826;49.784;9.934;2023-03-19T07:37:01;2.57;;;2.37;;
15449;SDS011;7826;49.784;9.934;2023-03-19T07:39:28;4.33;;;2.40;;
15449;SDS011;7826;49.784;9.934;2023-03-19T07:41:54;3.73;;;2.60;;
15449;SDS011;7826;49.784;9.934;2023-03-19T07:44:20;3.47;;;2.70;;
15449;SDS011;7826;49.784;9.934;2023-03-19T07:46:46;3.33;;;2.80;;
15449;SDS011;7826;49.784;9.934;2023-03-19T07:49:12;6.37;;;2.57;;
15449;SDS011;7826;49.784;9.934;2023-03-19T07:51:38;3.10;;;2.80;;
15449;SDS011;7826;49.784;9.934;2023-03-19T07:54:04;4.30;;;3.00;;
15449;SDS011;7826;49.784;9.934;2023-03-19T07:56:31;3.23;;;2.70;;
15449;SDS011;7826;49.784;9.934;2023-03-19T07:58:57;3.63;;;2.90;;
15449;SDS011;7826;49.784;9.934;2023-03-19T08:01:24;3.57;;;2.90;;
15449;SDS011;7826;49.784;9.934;2023-03-19T08:03:51;3.17;;;2.87;;
15449;SDS011;7826;49.784;9.934;2023-03-19T08:06:18;4.27;;;3.27;;
15449;SDS011;7826;49.784;9.934;2023-03-19T08:08:44;4.43;;;2.80;;
15449;SDS011;7826;49.784;9.934;2023-03-19T08:11:11;6.30;;;3.33;;
15449;SDS011;7826;49.784;9.934;2023-03-19T08:13:37;4.37;;;2.77;;
15449;SDS011;7826;49.784;9.934;2023-03-19T08:16:03;3.77;;;2.80;;
15449;SDS011;7826;49.784;9.934;2023-03-19T08:18:30;3.17;;;2.80;;
15449;SDS011;7826;49.784;9.934;2023-03-19T08:20:56;4.20;;;3.13;;
15449;SDS011;7826;49.784;9.934;2023-03-19T08:23:23;2.73;;;2.53;;
15449;SDS011;7826;49.784;9.934;2023-03-19T08:25:49;4.67;;;2.80;;
15449;SDS011;7826;49.784;9.934;2023-03-19T08:28:18;3.07;;;2.77;;
15449;SDS011;7826;49.784;9.934;2023-03-19T08:30:44;3.77;;;2.77;;
15449;SDS011;7826;49.784;9.934;2023-03-19T08:33:11;4.17;;;3.00;;
15449;SDS011;7826;49.784;9.934;2023-03-19T08:35:37;4.10;;;3.17;;
15449;SDS011;7826;49.784;9.934;2023-03-19T08:38:03;4.70;;;3.27;;
15449;SDS011;7826;49.784;9.934;2023-03-19T08:40:30;3.13;;;2.80;;
15449;SDS011;7826;49.784;9.934;2023-03-19T08:42:56;3.40;;;3.07;;
15449;SDS011;7826;49.784;9.934;2023-03-19T08:45:22;4.00;;;2.83;;
15449;SDS011;7826;49.784;9.934;2023-03-19T08:47:48;4.57;;;2.93;;
15449;SDS011;7826;49.784;9.934;2023-03-19T08:50:15;4.10;;;3.23;;
15449;SDS011;7826;49.784;9.934;2023-03-19T08:52:42;4.43;;;2.90;;
15449;SDS011;7826;49.784;9.934;2023-03-19T08:55:08;5.10;;;3.30;;
15449;SDS011;7826;49.784;9.934;2023-03-19T08:57:35;4.30;;;3.37;;
15449;SDS011;7826;49.784;9.934;2023-03-19T09:00:02;3.17;;;2.87;;
15449;SDS011;7826;49.784;9.934;2023-03-19T09:02:30;4.60;;;2.80;;
15449;SDS011;7826;49.784;9.934;2023-03-19T09:04:56;3.57;;;3.10;;
15449;SDS011;7826;49.784;9.934;2023-03-19T09:07:23;2.97;;;2.70;;
15449;SDS011;7826;49.784;9.934;2023-03-19T09:09:49;3.30;;;2.83;;
15449;SDS011;7826;49.784;9.934;2023-03-19T09:12:16;3.73;;;2.90;;
15449;SDS011;7826;49.784;9.934;2023-03-19T09:14:43;3.27;;;3.00;;
15449;SDS011;7826;49.784;9.934;2023-03-19T09:17:09;4.43;;;2.80;;
15449;SDS011;7826;49.784;9.934;2023-03-19T09:19:37;4.20;;;2.80;;
15449;SDS011;7826;49.784;9.934;2023-03-19T09:22:04;3.60;;;2.90;;
15449;SDS011;7826;49.784;9.934;2023-03-19T09:24:30;3.47;;;2.50;;
15449;SDS011;7826;49.784;9.934;2023-03-19T09:26:56;2.83;;;2.50;;
15449;SDS011;7826;49.784;9.934;2023-03-19T09:29:22;2.43;;;2.23;;
15449;SDS011;7826;49.784;9.934;2023-03-19T09:32:06;4.03;;;2.57;;
15449;SDS011;7826;49.784;9.934;2023-03-19T09:34:51;2.57;;;2.00;;
15449;SDS011;7826;49.784;9.934;2023-03-19T09:37:35;3.00;;;2.30;;
15449;SDS011;7826;49.784;9.934;2023-03-19T09:40:01;3.37;;;2.23;;
15449;SDS011;7826;49.784;9.934;2023-03-19T09:42:44;2.10;;;1.90;;
15449;SDS011;7826;49.784;9.934;2023-03-19T09:45:17;2.60;;;2.20;;
15449;SDS011;7826;49.784;9.934;2023-03-19T09:47:44;2.37;;;2.17;;
15449;SDS011;7826;49.784;9.934;2023-03-19T09:50:19;2.20;;;2.00;;
15449;SDS011;7826;49.784;9.934;2023-03-19T09:57:54;2.90;;;2.23;;
15449;SDS011;7826;49.784;9.934;2023-03-19T10:00:26;2.20;;;2.00;;
15449;SDS011;7826;49.784;9.934;2023-03-19T10:03:06;3.30;;;2.00;;
15449;SDS011;7826;49.784;9.934;2023-03-19T10:05:59;2.10;;;1.90;;
15449;SDS011;7826;49.784;9.934;2023-03-19T10:08:59;2.43;;;1.80;;
15449;SDS011;7826;49.784;9.934;2023-03-19T10:14:16;2.27;;;1.60;;
15449;SDS011;7826;49.784;9.934;2023-03-19T10:17:05;3.83;;;1.97;;
15449;SDS011;7826;49.784;9.934;2023-03-19T10:19:39;2.00;;;1.70;;
15449;SDS011;7826;49.784;9.934;2023-03-19T10:22:15;1.37;;;1.20;;
15449;SDS011;7826;49.784;9.934;2023-03-19T10:24:45;1.80;;;1.70;;
15449;SDS011;7826;49.784;9.934;2023-03-19T10:27:14;2.00;;;1.80;;
15449;SDS011;7826;49.784;9.934;2023-03-19T10:29:46;2.40;;;1.70;;
15449;SDS011;7826;49.784;9.934;2023-03-19T10:32:20;3.83;;;1.97;;
15449;SDS011;7826;49.784;9.934;2023-03-19T10:34:58;2.03;;;1.70;;
15449;SDS011;7826;49.784;9.934;2023-03-19T10:37:32;1.80;;;1.70;;
15449;SDS011;7826;49.784;9.934;2023-03-19T10:40:00;1.90;;;1.80;;
15449;SDS011;7826;49.784;9.934;2023-03-19T10:48:00;1.93;;;1.60;;
15449;SDS011;7826;49.784;9.934;2023-03-19T10:53:37;1.90;;;1.70;;
15449;SDS011;7826;49.784;9.934;2023-03-19T10:55:45;1.80;;;1.70;;
15449;SDS011;7826;49.784;9.934;2023-03-19T10:58:25;3.60;;;1.50;;
15449;SDS011;7826;49.784;9.934;2023-03-19T11:00:57;1.43;;;1.30;;
15449;SDS011;7826;49.784;9.934;2023-03-19T11:03:36;1.93;;;1.57;;
15449;SDS011;7826;49.784;9.934;2023-03-19T11:06:11;1.87;;;1.77;;
15449;SDS011;7826;49.784;9.934;2023-03-19T11:08:56;2.50;;;1.80;;
15449;SDS011;7826;49.784;9.934;2023-03-19T11:11:34;2.30;;;1.70;;
15449;SDS011;7826;49.784;9.934;2023-03-19T11:14:14;2.03;;;1.83;;
15449;SDS011;7826;49.784;9.934;2023-03-19T11:17:06;2.50;;;1.30;;
15449;SDS011;7826;49.784;9.934;2023-03-19T11:19:52;2.80;;;1.80;;
15449;SDS011;7826;49.784;9.934;2023-03-19T11:22:37;1.90;;;1.67;;
15449;SDS011;7826;49.784;9.934;2023-03-19T11:25:15;2.03;;;1.83;;
15449;SDS011;7826;49.784;9.934;2023-03-19T11:36:55;2.73;;;1.63;;
15449;SDS011;7826;49.784;9.934;2023-03-19T11:41:53;1.50;;;1.40;;
15449;SDS011;7826;49.784;9.934;2023-03-19T11:50:26;1.37;;;1.27;;
15449;SDS011;7826;49.784;9.934;2023-03-19T12:10:24;2.80;;;1.60;;
15449;SDS011;7826;49.784;9.934;2023-03-19T12:33:05;1.60;;;1.50;;
15449;SDS011;7826;49.784;9.934;2023-03-19T12:35:33;3.47;;;1.60;;
15449;SDS011;7826;49.784;9.934;2023-03-19T12:43:18;1.60;;;1.40;;
15449;SDS011;7826;49.784;9.934;2023-03-19T12:45:51;1.47;;;1.37;;
15449;SDS011;7826;49.784;9.934;2023-03-19T12:48:25;2.23;;;1.50;;
15449;SDS011;7826;49.784;9.934;2023-03-19T12:50:56;4.70;;;1.70;;
15449;SDS011;7826;49.784;9.934;2023-03-19T12:53:33;1.73;;;1.30;;
15449;SDS011;7826;49.784;9.934;2023-03-19T12:56:11;2.43;;;1.30;;
15449;SDS011;7826;49.784;9.934;2023-03-19T12:58:51;2.03;;;1.83;;
15449;SDS011;7826;49.784;9.934;2023-03-19T13:01:35;2.17;;;1.40;;
15449;SDS011;7826;49.784;9.934;2023-03-19T13:04:07;3.30;;;1.40;;
15449;SDS011;7826;49.784;9.934;2023-03-19T13:06:38;1.20;;;1.10;;
15449;SDS011;7826;49.784;9.934;2023-03-19T13:09:23;1.30;;;1.20;;
15449;SDS011;7826;49.784;9.934;2023-03-19T13:12:20;2.90;;;1.30;;
15449;SDS011;7826;49.784;9.934;2023-03-19T13:14:59;3.17;;;1.70;;
15449;SDS011;7826;49.784;9.934;2023-03-19T13:17:56;1.43;;;1.30;;
15449;SDS011;7826;49.784;9.934;2023-03-19T13:23:33;1.67;;;1.47;;
15449;SDS011;7826;49.784;9.934;2023-03-19T13:26:02;1.60;;;1.50;;
15449;SDS011;7826;49.784;9.934;2023-03-19T13:28:33;1.47;;;1.37;;
15449;SDS011;7826;49.784;9.934;2023-03-19T13:31:16;1.63;;;1.53;;
15449;SDS011;7826;49.784;9.934;2023-03-19T13:36:59;2.13;;;1.53;;
15449;SDS011;7826;49.784;9.934;2023-03-19T13:39:31;2.00;;;1.60;;
15449;SDS011;7826;49.784;9.934;2023-03-19T13:42:08;1.40;;;1.30;;
15449;SDS011;7826;49.784;9.934;2023-03-19T13:44:47;1.43;;;1.33;;
15449;SDS011;7826;49.784;9.934;2023-03-19T13:52:44;1.60;;;1.50;;
15449;SDS011;7826;49.784;9.934;2023-03-19T13:55:34;1.40;;;1.30;;
15449;SDS011;7826;49.784;9.934;2023-03-19T13:58:20;2.47;;;1.50;;
15449;SDS011;7826;49.784;9.934;2023-03-19T14:01:08;1.80;;;1.50;;
15449;SDS011;7826;49.784;9.934;2023-03-19T14:03:56;2.57;;;1.30;;
15449;SDS011;7826;49.784;9.934;2023-03-19T14:06:44;1.63;;;1.50;;
15449;SDS011;7826;49.784;9.934;2023-03-19T14:12:58;1.50;;;1.40;;
15449;SDS011;7826;49.784;9.934;2023-03-19T14:25:21;1.60;;;1.50;;
15449;SDS011;7826;49.784;9.934;2023-03-19T14:28:00;1.47;;;1.37;;
15449;SDS011;7826;49.784;9.934;2023-03-19T14:30:39;1.50;;;1.40;;
15449;SDS011;7826;49.784;9.934;2023-03-19T14:36:13;1.60;;;1.50;;
15449;SDS011;7826;49.784;9.934;2023-03-19T14:38:46;1.70;;;1.60;;
15449;SDS011;7826;49.784;9.934;2023-03-19T14:41:17;3.70;;;1.60;;
15449;SDS011;7826;49.784;9.934;2023-03-19T14:52:57;1.43;;;1.33;;
15449;SDS011;7826;49.784;9.934;2023-03-19T14:55:32;1.80;;;1.37;;
15449;SDS011;7826;49.784;9.934;2023-03-19T14:58:02;1.40;;;1.20;;
15449;SDS011;7826;49.784;9.934;2023-03-19T15:00:36;1.83;;;1.40;;
15449;SDS011;7826;49.784;9.934;2023-03-19T15:03:12;1.33;;;1.13;;
15449;SDS011;7826;49.784;9.934;2023-03-19T15:05:47;1.90;;;1.30;;
15449;SDS011;7826;49.784;9.934;2023-03-19T15:08:16;2.10;;;1.70;;
15449;SDS011;7826;49.784;9.934;2023-03-19T15:11:33;1.50;;;1.40;;
15449;SDS011;7826;49.784;9.934;2023-03-19T15:19:26;1.57;;;1.47;;
15449;SDS011;7826;49.784;9.934;2023-03-19T15:24:41;1.50;;;1.40;;
15449;SDS011;7826;49.784;9.934;2023-03-19T15:27:41;3.33;;;1.50;;
15449;SDS011;7826;49.784;9.934;2023-03-19T15:30:00;2.07;;;1.70;;
15449;SDS011;7826;49.784;9.934;2023-03-19T15:32:37;2.20;;;1.70;;
15449;SDS011;7826;49.784;9.934;2023-03-19T15:35:06;1.50;;;1.40;;
15449;SDS011;7826;49.784;9.934;2023-03-19T15:37:41;1.37;;;1.30;;
15449;SDS011;7826;49.784;9.934;2023-03-19T15:40:12;2.80;;;1.50;;
15449;SDS011;7826;49.784;9.934;2023-03-19T15:42:43;1.70;;;1.40;;
15449;SDS011;7826;49.784;9.934;2023-03-19T15:45:13;1.93;;;1.43;;
15449;SDS011;7826;49.784;9.934;2023-03-19T15:47:44;3.20;;;1.60;;
15449;SDS011;7826;49.784;9.934;2023-03-19T15:50:20;2.90;;;1.40;;
15449;SDS011;7826;49.784;9.934;2023-03-19T15:52:49;1.60;;;1.50;;
15449;SDS011;7826;49.784;9.934;2023-03-19T15:55:23;2.30;;;1.60;;
15449;SDS011;7826;49.784;9.934;2023-03-19T15:57:51;2.93;;;1.83;;
15449;SDS011;7826;49.784;9.934;2023-03-19T16:00:20;2.00;;;1.30;;
15449;SDS011;7826;49.784;9.934;2023-03-19T16:02:48;5.30;;;1.90;;
15449;SDS011;7826;49.784;9.934;2023-03-19T16:05:26;3.30;;;1.63;;
15449;SDS011;7826;49.784;9.934;2023-03-19T16:07:58;2.10;;;1.70;;
15449;SDS011;7826;49.784;9.934;2023-03-19T16:10:35;2.13;;;1.80;;
15449;SDS011;7826;49.784;9.934;2023-03-19T16:13:17;4.07;;;1.87;;
15449;SDS011;7826;49.784;9.934;2023-03-19T16:15:55;2.17;;;1.70;;
15449;SDS011;7826;49.784;9.934;2023-03-19T16:18:46;2.73;;;2.03;;
15449;SDS011;7826;49.784;9.934;2023-03-19T16:21:19;1.70;;;1.60;;
15449;SDS011;7826;49.784;9.934;2023-03-19T16:23:50;2.00;;;1.90;;
15449;SDS011;7826;49.784;9.934;2023-03-19T16:26:29;3.03;;;2.00;;
15449;SDS011;7826;49.784;9.934;2023-03-19T16:31:45;3.17;;;2.10;;
15449;SDS011;7826;49.784;9.934;2023-03-19T16:37:01;2.90;;;1.97;;
15449;SDS011;7826;49.784;9.934;2023-03-19T16:39:56;1.80;;;1.67;;
15449;SDS011;7826;49.784;9.934;2023-03-19T16:47:44;3.53;;;2.40;;
15449;SDS011;7826;49.784;9.934;2023-03-19T16:50:16;1.77;;;1.67;;
15449;SDS011;7826;49.784;9.934;2023-03-19T16:52:44;1.97;;;1.83;;
15449;SDS011;7826;49.784;9.934;2023-03-19T16:57:43;1.60;;;1.50;;
15449;SDS011;7826;49.784;9.934;2023-03-19T17:00:11;3.10;;;2.03;;
15449;SDS011;7826;49.784;9.934;2023-03-19T17:02:38;3.03;;;1.83;;
15449;SDS011;7826;49.784;9.934;2023-03-19T17:05:14;3.00;;;2.10;;
15449;SDS011;7826;49.784;9.934;2023-03-19T17:07:41;4.13;;;2.27;;
15449;SDS011;7826;49.784;9.934;2023-03-19T17:10:13;2.97;;;1.90;;
15449;SDS011;7826;49.784;9.934;2023-03-19T17:12:40;3.40;;;2.30;;
15449;SDS011;7826;49.784;9.934;2023-03-19T17:15:15;3.00;;;2.37;;
15449;SDS011;7826;49.784;9.934;2023-03-19T17:17:51;3.50;;;2.20;;
15449;SDS011;7826;49.784;9.934;2023-03-19T17:20:17;2.70;;;2.30;;
15449;SDS011;7826;49.784;9.934;2023-03-19T17:22:46;2.30;;;2.10;;
15449;SDS011;7826;49.784;9.934;2023-03-19T17:25:13;2.80;;;2.10;;
15449;SDS011;7826;49.784;9.934;2023-03-19T17:27:43;3.20;;;2.53;;
15449;SDS011;7826;49.784;9.934;2023-03-19T17:30:10;2.53;;;2.33;;
15449;SDS011;7826;49.784;9.934;2023-03-19T17:32:37;2.50;;;2.30;;
15449;SDS011;7826;49.784;9.934;2023-03-19T17:35:16;2.73;;;2.40;;
15449;SDS011;7826;49.784;9.934;2023-03-19T17:37:45;6.83;;;2.70;;